Time;durP1;ratioP1;P1;durP2;ratioP2;P2;SDS_P1;SDS_P2;PMS_P1;PMS_P2;Temp;Humidity;BMP_temperature;BMP_pressure;BME280_temperature;BME280_humidity;BME280_pressure;Samples;Min_cycle;Max_cycle;Signal;HPM_P1;HPM_P2
2022/10/14 00:00:53;;;;;;;;;;;;;;;;;;4938368;29;19926;-89
2022/10/14 00:03:18;;;;;;;;;;;;;;;;;;4938520;29;20337;-87
2022/10/14 00:05:43;;;;;;;;;;;;;;;;;;4938284;29;19919;-89
2022/10/14 00:08:09;;;;;;;;;;;;;;;;;;4921219;29;19927;-90
2022/10/14 00:10:38;;;;;;;;;;;;;;;;;;4937925;29;20334;-92
2022/10/14 00:13:03;;;;;;;;;;;;;;;;;;4938211;29;19914;-88
2022/10/14 00:15:29;;;;;;;;;;;;;;;;;;4920775;29;20417;-86
2022/10/14 00:17:54;;;;;;;;;;;;;;;;;;4920022;29;20327;-87
2022/10/14 00:20:20;;;;;;;;;;;;;;;;;;4937667;29;20013;-86
2022/10/14 00:22:45;;;;;;;;;;;;;;;;;;4920573;29;19974;-89
2022/10/14 00:25:10;;;;;;;;;;;;;;;;;;4920707;29;19966;-88
2022/10/14 00:27:36;;;;;;;;;;;;;;;;;;4937545;29;19969;-87
2022/10/14 00:30:01;;;;;;;;;;;;;;;;;;4937619;29;19923;-86
2022/10/14 00:32:27;;;;;;;;;;;;;;;;;;4937199;29;19919;-87
2022/10/14 00:34:52;;;;;;;;;;;;;;;;;;4937781;29;19926;-87
2022/10/14 00:37:18;;;;;;;;;;;;;;;;;;4920643;29;19926;-88
2022/10/14 00:39:43;;;;;;;;;;;;;;;;;;4920339;29;19918;-87
2022/10/14 00:42:12;;;;;;;;;;;;;;;;;;4920787;29;19934;-87
2022/10/14 00:44:44;;;;;;;;;;;;;;;;;;4922617;29;19923;-88
2022/10/14 00:47:09;;;;;;;;;;;;;;;;;;4940066;29;20009;-90
2022/10/14 00:49:37;;;;;;;;;;;;;;;;;;4938285;29;20346;-86
2022/10/14 00:52:06;;;;;;;;;;;;;;;;;;4937370;29;19974;-87
2022/10/14 00:54:41;;;;;;;;;;;;;;;;;;4920012;29;19923;-87
2022/10/14 00:57:06;;;;;;;;;;;;;;;;;;4919534;29;19923;-87
2022/10/14 00:59:32;;;;;;;;;;;;;;;;;;4936393;29;19923;-88
2022/10/14 01:01:58;;;;;;;;;;;;;;;;;;4919206;29;20029;-90
2022/10/14 01:04:24;;;;;;;;;;;;;;;;;;4936208;29;20005;-87
2022/10/14 01:06:49;;;;;;;;;;;;;;;;;;4936944;29;19966;-88
2022/10/14 01:09:18;;;;;;;;;;;;;;;;;;4934546;29;19970;-90
2022/10/14 01:12:12;;;;;;;;;;;;;;;;;;4919928;29;20039;-92
2022/10/14 01:14:38;;;;;;;;;;;;;;;;;;4919738;29;20009;-88
2022/10/14 01:17:07;;;;;;;;;;;;;;;;;;4936930;29;20034;-90
2022/10/14 01:19:39;;;;;;;;;;;;;;;;;;4920847;29;19925;-91
2022/10/14 01:22:09;;;;;;;;;;;;;;;;;;4917858;29;20286;-90
2022/10/14 01:24:54;;;;;;;;;;;;;;;;;;4917186;29;19929;-92
2022/10/14 01:27:39;;;;;;;;;;;;;;;;;;4906446;29;19923;-91
2022/10/14 01:30:18;;;;;;;;;;;;;;;;;;4914901;29;20005;-93
2022/10/14 01:32:48;;;;;;;;;;;;;;;;;;4917798;29;19931;-91
2022/10/14 01:35:22;;;;;;;;;;;;;;;;;;4932018;29;19925;-90
2022/10/14 01:37:51;;;;;;;;;;;;;;;;;;4931954;29;20416;-91
2022/10/14 01:40:21;;;;;;;;;;;;;;;;;;4917579;29;20377;-90
2022/10/14 01:42:47;;;;;;;;;;;;;;;;;;4915887;29;19923;-89
2022/10/14 01:45:18;;;;;;;;;;;;;;;;;;4917576;29;19961;-89
2022/10/14 01:47:45;;;;;;;;;;;;;;;;;;4915762;29;19933;-91
2022/10/14 01:50:14;;;;;;;;;;;;;;;;;;4934346;29;19926;-89
2022/10/14 01:53:00;;;;;;;;;;;;;;;;;;4923643;29;20006;-92
2022/10/14 01:55:27;;;;;;;;;;;;;;;;;;4922625;29;19938;-91
2022/10/14 01:57:55;;;;;;;;;;;;;;;;;;4933478;29;19953;-91
2022/10/14 02:00:20;;;;;;;;;;;;;;;;;;4922480;29;19959;-90
2022/10/14 02:02:46;;;;;;;;;;;;;;;;;;4917026;29;19927;-90
2022/10/14 02:05:25;;;;;;;;;;;;;;;;;;4933749;29;20014;-90
2022/10/14 02:07:55;;;;;;;;;;;;;;;;;;4922303;29;19933;-89
2022/10/14 02:10:24;;;;;;;;;;;;;;;;;;4932515;29;19938;-92
2022/10/14 02:12:56;;;;;;;;;;;;;;;;;;4916599;29;19923;-92
2022/10/14 02:15:30;;;;;;;;;;;;;;;;;;4917712;29;20275;-93
2022/10/14 02:18:00;;;;;;;;;;;;;;;;;;4917568;29;19919;-91
2022/10/14 02:20:44;;;;;;;;;;;;;;;;;;4938052;29;20013;-90
2022/10/14 02:23:13;;;;;;;;;;;;;;;;;;4938887;29;19919;-89
2022/10/14 02:25:40;;;;;;;;;;;;;;;;;;4921148;29;19926;-91
2022/10/14 02:28:07;;;;;;;;;;;;;;;;;;4938818;29;19973;-90
2022/10/14 02:30:35;;;;;;;;;;;;;;;;;;4921404;29;19919;-91
2022/10/14 02:33:01;;;;;;;;;;;;;;;;;;4939186;29;19930;-91
2022/10/14 02:35:29;;;;;;;;;;;;;;;;;;4921088;29;19926;-91
2022/10/14 02:37:55;;;;;;;;;;;;;;;;;;4937510;29;19919;-88
2022/10/14 02:40:41;;;;;;;;;;;;;;;;;;4920702;29;19919;-91
2022/10/14 02:43:09;;;;;;;;;;;;;;;;;;4919913;29;19941;-88
2022/10/14 02:45:35;;;;;;;;;;;;;;;;;;4921144;29;19918;-87
2022/10/14 02:48:01;;;;;;;;;;;;;;;;;;4937597;29;19978;-88
2022/10/14 02:50:26;;;;;;;;;;;;;;;;;;4937464;29;19919;-88
2022/10/14 02:52:51;;;;;;;;;;;;;;;;;;4937749;29;19970;-87
2022/10/14 02:55:17;;;;;;;;;;;;;;;;;;4920495;29;20347;-86
2022/10/14 02:57:42;;;;;;;;;;;;;;;;;;4920656;29;19922;-87
2022/10/14 03:00:08;;;;;;;;;;;;;;;;;;4920611;29;19941;-87
2022/10/14 03:02:33;;;;;;;;;;;;;;;;;;4908674;29;19923;-86
2022/10/14 03:04:59;;;;;;;;;;;;;;;;;;4901894;29;19920;-86
2022/10/14 03:07:24;;;;;;;;;;;;;;;;;;4928577;29;20065;-91
2022/10/14 03:09:50;;;;;;;;;;;;;;;;;;4920977;29;19981;-89
2022/10/14 03:12:15;;;;;;;;;;;;;;;;;;4919893;29;19942;-88
2022/10/14 03:14:41;;;;;;;;;;;;;;;;;;4921155;29;19998;-86
2022/10/14 03:17:06;;;;;;;;;;;;;;;;;;4920046;29;19930;-90
2022/10/14 03:19:32;;;;;;;;;;;;;;;;;;4920506;29;19919;-91
2022/10/14 03:21:57;;;;;;;;;;;;;;;;;;4937653;29;20374;-89
2022/10/14 03:24:23;;;;;;;;;;;;;;;;;;4937458;29;19974;-86
2022/10/14 03:26:48;;;;;;;;;;;;;;;;;;4937924;29;19922;-91
2022/10/14 03:29:14;;;;;;;;;;;;;;;;;;4920691;29;20353;-88
2022/10/14 03:31:39;;;;;;;;;;;;;;;;;;4945775;28;19927;-86
2022/10/14 03:34:04;;;;;;;;;;;;;;;;;;4918153;29;19974;-87
2022/10/14 03:36:30;;;;;;;;;;;;;;;;;;4932786;29;19919;-91
2022/10/14 03:38:55;;;;;;;;;;;;;;;;;;4934664;29;19919;-87
2022/10/14 03:41:21;;;;;;;;;;;;;;;;;;4941188;29;19922;-88
2022/10/14 03:43:46;;;;;;;;;;;;;;;;;;4922832;29;19954;-91
2022/10/14 03:46:12;;;;;;;;;;;;;;;;;;4932242;29;19930;-89
2022/10/14 03:48:37;;;;;;;;;;;;;;;;;;4923488;29;19926;-88
2022/10/14 03:51:02;;;;;;;;;;;;;;;;;;4941544;29;19919;-90
2022/10/14 03:53:28;;;;;;;;;;;;;;;;;;4941324;29;20267;-90
2022/10/14 03:55:53;;;;;;;;;;;;;;;;;;4919514;29;19923;-87
2022/10/14 03:58:19;;;;;;;;;;;;;;;;;;4923216;29;20009;-86
2022/10/14 04:00:44;;;;;;;;;;;;;;;;;;4922856;29;19915;-87
2022/10/14 04:03:10;;;;;;;;;;;;;;;;;;4935013;29;19926;-84
2022/10/14 04:05:35;;;;;;;;;;;;;;;;;;4922980;29;19922;-85
2022/10/14 04:08:01;;;;;;;;;;;;;;;;;;4940588;29;19930;-86
2022/10/14 04:10:27;;;;;;;;;;;;;;;;;;4938801;29;20009;-88
2022/10/14 04:12:53;;;;;;;;;;;;;;;;;;4939840;29;19923;-90
2022/10/14 04:15:19;;;;;;;;;;;;;;;;;;4923172;29;19918;-85
2022/10/14 04:17:44;;;;;;;;;;;;;;;;;;4939787;29;20375;-84
2022/10/14 04:20:10;;;;;;;;;;;;;;;;;;4922732;29;19969;-85
2022/10/14 04:22:35;;;;;;;;;;;;;;;;;;4940613;29;19946;-84
2022/10/14 04:25:00;;;;;;;;;;;;;;;;;;4939924;29;20317;-87
2022/10/14 04:27:26;;;;;;;;;;;;;;;;;;4939825;29;20382;-85
2022/10/14 04:29:51;;;;;;;;;;;;;;;;;;4940129;29;19919;-85
2022/10/14 04:32:17;;;;;;;;;;;;;;;;;;4940763;29;19954;-86
2022/10/14 04:34:43;;;;;;;;;;;;;;;;;;4922824;29;20290;-86
2022/10/14 04:37:08;;;;;;;;;;;;;;;;;;4922325;29;19915;-85
2022/10/14 04:39:33;;;;;;;;;;;;;;;;;;4940264;29;19959;-87
2022/10/14 04:41:59;;;;;;;;;;;;;;;;;;4939586;29;19919;-84
2022/10/14 04:44:24;;;;;;;;;;;;;;;;;;4940205;29;19915;-84
2022/10/14 04:46:50;;;;;;;;;;;;;;;;;;4940073;29;19927;-87
2022/10/14 04:49:15;;;;;;;;;;;;;;;;;;4939865;29;19918;-84
2022/10/14 04:51:41;;;;;;;;;;;;;;;;;;4939940;29;19923;-85
2022/10/14 04:54:06;;;;;;;;;;;;;;;;;;4922924;29;19941;-85
2022/10/14 04:56:32;;;;;;;;;;;;;;;;;;4939688;29;20394;-86
2022/10/14 04:58:57;;;;;;;;;;;;;;;;;;4922739;29;20371;-83
2022/10/14 05:01:23;;;;;;;;;;;;;;;;;;4939906;29;20400;-88
2022/10/14 05:03:50;;;;;;;;;;;;;;;;;;4940162;29;20430;-87
2022/10/14 05:06:15;;;;;;;;;;;;;;;;;;4940058;29;19919;-88
2022/10/14 05:08:41;;;;;;;;;;;;;;;;;;4939966;29;19919;-91
2022/10/14 05:11:06;;;;;;;;;;;;;;;;;;4939657;29;19923;-90
2022/10/14 05:13:32;;;;;;;;;;;;;;;;;;4922953;29;19974;-89
2022/10/14 05:15:57;;;;;;;;;;;;;;;;;;4939210;29;19922;-91
2022/10/14 05:18:23;;;;;;;;;;;;;;;;;;4922547;29;20259;-92
2022/10/14 05:20:48;;;;;;;;;;;;;;;;;;4939150;29;19923;-91
2022/10/14 05:23:13;;;;;;;;;;;;;;;;;;4939456;29;20703;-89
2022/10/14 05:25:39;;;;;;;;;;;;;;;;;;4922496;29;19975;-89
2022/10/14 05:28:05;;;;;;;;;;;;;;;;;;4921979;29;20401;-92
2022/10/14 05:30:30;;;;;;;;;;;;;;;;;;4922363;29;19923;-91
2022/10/14 05:32:56;;;;;;;;;;;;;;;;;;4938598;29;19919;-92
2022/10/14 05:35:21;;;;;;;;;;;;;;;;;;4939156;29;19949;-88
2022/10/14 05:37:47;;;;;;;;;;;;;;;;;;4939072;29;20425;-90
2022/10/14 05:40:12;;;;;;;;;;;;;;;;;;4939097;29;19926;-92
2022/10/14 05:42:38;;;;;;;;;;;;;;;;;;4938928;29;19919;-93
2022/10/14 05:45:04;;;;;;;;;;;;;;;;;;4921594;29;19923;-92
2022/10/14 05:47:29;;;;;;;;;;;;;;;;;;4921677;29;19919;-92
2022/10/14 05:49:54;;;;;;;;;;;;;;;;;;4938384;29;19958;-92
2022/10/14 05:52:23;;;;;;;;;;;;;;;;;;4938987;29;20740;-92
2022/10/14 05:54:48;;;;;;;;;;;;;;;;;;4938255;29;20014;-91
2022/10/14 05:57:17;;;;;;;;;;;;;;;;;;4939734;29;19965;-93
2022/10/14 05:59:42;;;;;;;;;;;;;;;;;;4922158;29;19958;-90
2022/10/14 06:02:08;;;;;;;;;;;;;;;;;;4939552;29;19922;-93
2022/10/14 06:04:34;;;;;;;;;;;;;;;;;;4938107;29;19919;-93
2022/10/14 06:06:59;;;;;;;;;;;;;;;;;;4936014;29;19918;-90
2022/10/14 06:09:25;;;;;;;;;;;;;;;;;;4936056;29;19929;-84
2022/10/14 06:11:50;;;;;;;;;;;;;;;;;;4935873;29;19919;-91
2022/10/14 06:14:15;;;;;;;;;;;;;;;;;;4936242;29;19926;-86
2022/10/14 06:16:41;;;;;;;;;;;;;;;;;;4935667;29;19914;-86
2022/10/14 06:19:06;;;;;;;;;;;;;;;;;;4931593;29;19927;-84
2022/10/14 06:21:32;;;;;;;;;;;;;;;;;;4918898;29;20009;-87
2022/10/14 06:23:57;;;;;;;;;;;;;;;;;;4929263;29;19923;-85
2022/10/14 06:26:22;;;;;;;;;;;;;;;;;;4918768;29;19919;-87
2022/10/14 06:28:48;;;;;;;;;;;;;;;;;;4934945;29;20001;-84
2022/10/14 06:31:13;;;;;;;;;;;;;;;;;;4935721;29;19918;-89
2022/10/14 06:33:39;;;;;;;;;;;;;;;;;;4918814;29;20318;-88
2022/10/14 06:36:05;;;;;;;;;;;;;;;;;;4935500;29;20375;-85
2022/10/14 06:38:31;;;;;;;;;;;;;;;;;;4935724;29;20268;-86
2022/10/14 06:40:57;;;;;;;;;;;;;;;;;;4935317;29;19947;-92
2022/10/14 06:43:22;;;;;;;;;;;;;;;;;;4918508;29;19923;-91
2022/10/14 06:45:48;;;;;;;;;;;;;;;;;;4935673;29;19919;-90
2022/10/14 06:48:14;;;;;;;;;;;;;;;;;;4918386;29;19919;-90
2022/10/14 06:50:39;;;;;;;;;;;;;;;;;;4935591;29;19919;-86
2022/10/14 06:53:05;;;;;;;;;;;;;;;;;;4935329;29;19919;-90
2022/10/14 06:55:30;;;;;;;;;;;;;;;;;;4935395;29;19930;-84
2022/10/14 06:57:57;;;;;;;;;;;;;;;;;;4918283;29;20070;-85
2022/10/14 07:00:22;;;;;;;;;;;;;;;;;;4918505;29;19919;-93
2022/10/14 07:02:50;;;;;;;;;;;;;;;;;;4918403;29;20256;-93
2022/10/14 07:05:16;;;;;;;;;;;;;;;;;;4936023;29;19923;-94
2022/10/14 07:07:41;;;;;;;;;;;;;;;;;;4939324;29;19973;-92
2022/10/14 07:10:07;;;;;;;;;;;;;;;;;;4939267;29;19982;-93
2022/10/14 07:12:32;;;;;;;;;;;;;;;;;;4939599;29;19919;-90
2022/10/14 07:14:58;;;;;;;;;;;;;;;;;;4939324;29;19926;-92
2022/10/14 07:17:23;;;;;;;;;;;;;;;;;;4939669;29;20353;-91
2022/10/14 07:19:49;;;;;;;;;;;;;;;;;;4939688;29;19919;-91
2022/10/14 07:22:16;;;;;;;;;;;;;;;;;;4939819;29;19947;-91
2022/10/14 07:24:41;;;;;;;;;;;;;;;;;;4939617;29;19922;-90
2022/10/14 07:27:07;;;;;;;;;;;;;;;;;;4931880;29;19990;-92
2022/10/14 07:29:33;;;;;;;;;;;;;;;;;;4932866;29;19919;-92
2022/10/14 07:31:59;;;;;;;;;;;;;;;;;;4937531;29;20376;-90
2022/10/14 07:34:24;;;;;;;;;;;;;;;;;;4936445;29;20353;-87
2022/10/14 07:36:49;;;;;;;;;;;;;;;;;;4938645;29;19988;-90
2022/10/14 07:39:15;;;;;;;;;;;;;;;;;;4921730;29;20330;-92
2022/10/14 07:41:40;;;;;;;;;;;;;;;;;;4938742;29;19926;-90
2022/10/14 07:44:08;;;;;;;;;;;;;;;;;;4938717;29;19915;-90
2022/10/14 07:46:35;;;;;;;;;;;;;;;;;;4921775;29;19970;-90
2022/10/14 07:49:02;;;;;;;;;;;;;;;;;;4939054;29;19927;-87
2022/10/14 07:51:28;;;;;;;;;;;;;;;;;;4938604;29;20013;-84
2022/10/14 07:53:54;;;;;;;;;;;;;;;;;;4938560;29;20424;-86
2022/10/14 07:56:20;;;;;;;;;;;;;;;;;;4920920;29;19923;-86
2022/10/14 07:58:45;;;;;;;;;;;;;;;;;;4938037;29;19919;-87
2022/10/14 08:01:11;;;;;;;;;;;;;;;;;;4937786;29;20358;-90
2022/10/14 08:03:36;;;;;;;;;;;;;;;;;;4937854;29;19930;-88
2022/10/14 08:06:03;;;;;;;;;;;;;;;;;;4938119;29;19918;-85
2022/10/14 08:08:29;;;;;;;;;;;;;;;;;;4933789;29;20370;-86
2022/10/14 08:11:11;;;;;;;;;;;;;;;;;;4930474;29;19922;-90
2022/10/14 08:13:37;;;;;;;;;;;;;;;;;;4919113;29;19973;-87
2022/10/14 08:16:02;;;;;;;;;;;;;;;;;;4921713;29;20362;-86
2022/10/14 08:18:28;;;;;;;;;;;;;;;;;;4937075;29;19926;-86
2022/10/14 08:20:53;;;;;;;;;;;;;;;;;;4937418;29;20382;-87
2022/10/14 08:23:19;;;;;;;;;;;;;;;;;;4936505;29;19922;-86
2022/10/14 08:25:46;;;;;;;;;;;;;;;;;;4936168;29;19974;-86
2022/10/14 08:28:11;;;;;;;;;;;;;;;;;;4920441;29;19919;-86
2022/10/14 08:30:37;;;;;;;;;;;;;;;;;;4937009;29;19925;-85
2022/10/14 08:33:02;;;;;;;;;;;;;;;;;;4937132;29;19914;-87
2022/10/14 08:35:28;;;;;;;;;;;;;;;;;;4937935;29;19918;-85
2022/10/14 08:37:57;;;;;;;;;;;;;;;;;;4937512;29;19922;-85
2022/10/14 08:40:22;;;;;;;;;;;;;;;;;;4937652;29;19921;-84
2022/10/14 08:43:07;;;;;;;;;;;;;;;;;;4937562;29;19922;-85
2022/10/14 08:45:36;;;;;;;;;;;;;;;;;;4920395;29;20397;-86
2022/10/14 08:48:02;;;;;;;;;;;;;;;;;;4920199;29;20302;-84
2022/10/14 08:50:35;;;;;;;;;;;;;;;;;;4937465;29;19919;-86
2022/10/14 08:53:09;;;;;;;;;;;;;;;;;;4920391;29;19919;-85
2022/10/14 08:55:36;;;;;;;;;;;;;;;;;;4936748;29;20017;-85
2022/10/14 08:58:13;;;;;;;;;;;;;;;;;;4937831;29;20021;-84
2022/10/14 09:00:44;;;;;;;;;;;;;;;;;;4936958;29;20013;-84
2022/10/14 09:03:15;;;;;;;;;;;;;;;;;;4937190;29;20005;-85
2022/10/14 09:05:40;;;;;;;;;;;;;;;;;;4937007;29;19919;-85
2022/10/14 09:08:10;;;;;;;;;;;;;;;;;;4936874;29;19919;-84
2022/10/14 09:10:38;;;;;;;;;;;;;;;;;;4939648;29;20382;-85
2022/10/14 09:13:13;;;;;;;;;;;;;;;;;;4937081;29;20367;-84
2022/10/14 09:15:42;;;;;;;;;;;;;;;;;;4936967;29;19923;-86
2022/10/14 09:18:18;;;;;;;;;;;;;;;;;;4937106;29;19926;-85
2022/10/14 09:20:45;;;;;;;;;;;;;;;;;;4938865;29;19947;-84
2022/10/14 09:23:18;;;;;;;;;;;;;;;;;;4923844;29;20295;-88
2022/10/14 09:25:53;;;;;;;;;;;;;;;;;;4937890;29;19922;-89
2022/10/14 09:28:18;;;;;;;;;;;;;;;;;;4921189;29;20002;-85
2022/10/14 09:30:44;;;;;;;;;;;;;;;;;;4922703;29;20013;-86
2022/10/14 09:33:15;;;;;;;;;;;;;;;;;;4936850;29;19941;-84
2022/10/14 09:35:41;;;;;;;;;;;;;;;;;;4936969;29;20375;-85
2022/10/14 09:38:06;;;;;;;;;;;;;;;;;;4919908;29;20040;-86
2022/10/14 09:40:35;;;;;;;;;;;;;;;;;;4919459;29;20285;-85
2022/10/14 09:43:00;;;;;;;;;;;;;;;;;;4919517;29;20398;-87
2022/10/14 09:45:28;;;;;;;;;;;;;;;;;;4936629;29;19922;-85
2022/10/14 09:48:03;;;;;;;;;;;;;;;;;;4936232;29;19929;-86
2022/10/14 09:50:39;;;;;;;;;;;;;;;;;;4922909;29;19957;-86
2022/10/14 09:53:22;;;;;;;;;;;;;;;;;;4939234;29;19919;-87
2022/10/14 09:55:51;;;;;;;;;;;;;;;;;;4937313;29;20346;-85
2022/10/14 09:58:18;;;;;;;;;;;;;;;;;;4936044;29;19919;-85
2022/10/14 10:00:44;;;;;;;;;;;;;;;;;;4918888;29;19922;-83
2022/10/14 10:03:23;;;;;;;;;;;;;;;;;;4937032;29;19978;-86
2022/10/14 10:05:57;;;;;;;;;;;;;;;;;;4936235;29;19969;-86
2022/10/14 10:08:22;;;;;;;;;;;;;;;;;;4936035;29;19925;-86
2022/10/14 10:10:57;;;;;;;;;;;;;;;;;;4935532;29;19922;-90
2022/10/14 10:13:33;;;;;;;;;;;;;;;;;;4937215;29;20365;-87
2022/10/14 10:16:00;;;;;;;;;;;;;;;;;;4940742;29;19923;-86
2022/10/14 10:18:25;;;;;;;;;;;;;;;;;;4937942;29;20390;-88
2022/10/14 10:21:14;;;;;;;;;;;;;;;;;;4939932;29;19923;-85
2022/10/14 10:23:49;;;;;;;;;;;;;;;;;;4939969;29;19923;-88
2022/10/14 10:26:16;;;;;;;;;;;;;;;;;;4940639;29;19918;-88
2022/10/14 10:28:45;;;;;;;;;;;;;;;;;;4940382;29;19985;-87
2022/10/14 10:31:27;;;;;;;;;;;;;;;;;;4937108;29;20136;-84
2022/10/14 10:34:06;;;;;;;;;;;;;;;;;;4922525;29;19923;-84
2022/10/14 10:36:37;;;;;;;;;;;;;;;;;;4935230;29;19923;-87
2022/10/14 10:39:05;;;;;;;;;;;;;;;;;;4935572;29;19925;-87
2022/10/14 10:41:39;;;;;;;;;;;;;;;;;;4933504;29;20374;-85
2022/10/14 10:44:24;;;;;;;;;;;;;;;;;;4935640;29;19922;-87
2022/10/14 10:46:53;;;;;;;;;;;;;;;;;;4918434;29;19951;-86
2022/10/14 10:49:37;;;;;;;;;;;;;;;;;;4934858;29;19919;-86
2022/10/14 10:52:07;;;;;;;;;;;;;;;;;;4935173;29;20318;-88
2022/10/14 10:54:48;;;;;;;;;;;;;;;;;;4918256;29;19926;-86
2022/10/14 10:57:16;;;;;;;;;;;;;;;;;;4934938;29;20013;-86
2022/10/14 10:59:55;;;;;;;;;;;;;;;;;;4934853;29;19926;-87
2022/10/14 11:02:37;;;;;;;;;;;;;;;;;;4935267;29;19919;-86
2022/10/14 11:05:02;;;;;;;;;;;;;;;;;;4916677;29;19930;-87
2022/10/14 11:13:47;;;;;;;;;;;;;;;;;;4858791;29;19927;-86
2022/10/14 11:16:35;;;;;;;;;;;;;;;;;;4876012;29;19976;-87
2022/10/14 11:19:06;;;;;;;;;;;;;;;;;;4879095;29;20010;-84
2022/10/14 11:21:41;;;;;;;;;;;;;;;;;;4861218;29;19982;-85
2022/10/14 11:24:16;;;;;;;;;;;;;;;;;;4839743;29;19932;-88
2022/10/14 11:26:55;;;;;;;;;;;;;;;;;;4823702;29;20391;-87
2022/10/14 11:29:26;;;;;;;;;;;;;;;;;;4823473;29;20318;-87
2022/10/14 11:32:02;;;;;;;;;;;;;;;;;;4839525;29;20424;-86
2022/10/14 11:34:40;;;;;;;;;;;;;;;;;;4824300;29;19920;-85
2022/10/14 11:37:28;;;;;;;;;;;;;;;;;;4839281;29;19960;-90
2022/10/14 11:39:56;;;;;;;;;;;;;;;;;;4806089;29;19925;-88
2022/10/14 11:42:25;;;;;;;;;;;;;;;;;;4839457;29;19931;-89
2022/10/14 11:44:57;;;;;;;;;;;;;;;;;;4824221;29;20395;-89
2022/10/14 11:47:28;;;;;;;;;;;;;;;;;;4897387;29;20014;-85
2022/10/14 11:49:56;;;;;;;;;;;;;;;;;;4916498;29;19929;-85
2022/10/14 11:52:30;;;;;;;;;;;;;;;;;;4917080;29;19971;-84
2022/10/14 11:55:04;;;;;;;;;;;;;;;;;;4919525;29;19982;-86
2022/10/14 11:57:34;;;;;;;;;;;;;;;;;;4919996;29;19923;-88
2022/10/14 12:00:05;;;;;;;;;;;;;;;;;;4923760;29;19919;-85
2022/10/14 12:02:49;;;;;;;;;;;;;;;;;;4919388;29;20018;-88
2022/10/14 12:05:21;;;;;;;;;;;;;;;;;;4918270;29;19927;-86
2022/10/14 12:08:01;;;;;;;;;;;;;;;;;;4919050;29;19926;-87
2022/10/14 12:10:43;;;;;;;;;;;;;;;;;;4919440;29;19919;-84
2022/10/14 12:13:11;;;;;;;;;;;;;;;;;;4921619;29;19919;-88
2022/10/14 12:15:39;;;;;;;;;;;;;;;;;;4926193;29;19933;-89
2022/10/14 12:18:05;;;;;;;;;;;;;;;;;;4933939;29;19989;-82
2022/10/14 12:20:43;;;;;;;;;;;;;;;;;;4916539;29;19927;-84
2022/10/14 12:23:11;;;;;;;;;;;;;;;;;;4934385;29;20009;-84
2022/10/14 12:25:47;;;;;;;;;;;;;;;;;;4934811;29;20272;-84
2022/10/14 12:28:18;;;;;;;;;;;;;;;;;;4934441;29;19923;-89
2022/10/14 12:30:45;;;;;;;;;;;;;;;;;;4917353;29;19923;-84
2022/10/14 12:33:12;;;;;;;;;;;;;;;;;;4934118;29;20378;-84
2022/10/14 12:35:58;;;;;;;;;;;;;;;;;;4936696;29;20009;-84
2022/10/14 12:38:25;;;;;;;;;;;;;;;;;;4917003;29;19922;-86
2022/10/14 12:40:50;;;;;;;;;;;;;;;;;;4929600;29;19923;-85
2022/10/14 12:43:17;;;;;;;;;;;;;;;;;;4905424;29;20374;-86
2022/10/14 12:45:51;;;;;;;;;;;;;;;;;;4915664;29;19996;-87
2022/10/14 12:48:22;;;;;;;;;;;;;;;;;;4934108;29;19923;-86
2022/10/14 12:50:48;;;;;;;;;;;;;;;;;;4934239;29;20413;-85
2022/10/14 12:53:25;;;;;;;;;;;;;;;;;;4934742;29;20142;-86
2022/10/14 12:55:53;;;;;;;;;;;;;;;;;;4932591;29;20045;-87
2022/10/14 12:58:39;;;;;;;;;;;;;;;;;;4930546;29;19927;-84
2022/10/14 13:01:15;;;;;;;;;;;;;;;;;;4929707;29;20013;-85
2022/10/14 13:04:01;;;;;;;;;;;;;;;;;;4917897;29;19923;-86
2022/10/14 13:06:28;;;;;;;;;;;;;;;;;;4919398;29;20282;-86
2022/10/14 13:09:14;;;;;;;;;;;;;;;;;;4919652;29;19976;-86
2022/10/14 13:11:43;;;;;;;;;;;;;;;;;;4936904;29;19925;-86
2022/10/14 13:14:38;;;;;;;;;;;;;;;;;;4918957;29;19964;-88
2022/10/14 13:17:24;;;;;;;;;;;;;;;;;;4840378;29;20386;-84
2022/10/14 13:19:49;;;;;;;;;;;;;;;;;;4822194;29;19924;-84
2022/10/14 13:22:27;;;;;;;;;;;;;;;;;;4841018;29;19920;-85
2022/10/14 13:24:59;;;;;;;;;;;;;;;;;;4841216;29;20053;-85
2022/10/14 13:27:33;;;;;;;;;;;;;;;;;;4825465;29;19996;-87
2022/10/14 13:30:04;;;;;;;;;;;;;;;;;;4840883;29;19960;-86
2022/10/14 13:32:35;;;;;;;;;;;;;;;;;;4840965;29;19932;-84
2022/10/14 13:35:00;;;;;;;;;;;;;;;;;;4840894;29;20355;-86
2022/10/14 13:37:39;;;;;;;;;;;;;;;;;;4841004;29;19927;-88
2022/10/14 13:40:30;;;;;;;;;;;;;;;;;;4840791;29;19927;-87
2022/10/14 13:42:57;;;;;;;;;;;;;;;;;;4840762;29;19992;-87
2022/10/14 13:45:31;;;;;;;;;;;;;;;;;;4841307;29;19944;-86
2022/10/14 13:47:56;;;;;;;;;;;;;;;;;;4840655;29;19997;-84
2022/10/14 13:50:24;;;;;;;;;;;;;;;;;;4840566;29;19977;-85
2022/10/14 13:53:02;;;;;;;;;;;;;;;;;;4859409;29;19959;-89
2022/10/14 13:55:29;;;;;;;;;;;;;;;;;;4917131;29;19923;-86
2022/10/14 13:58:10;;;;;;;;;;;;;;;;;;4917698;29;19930;-87
2022/10/14 14:00:37;;;;;;;;;;;;;;;;;;4917805;29;19923;-90
2022/10/14 14:03:08;;;;;;;;;;;;;;;;;;4917187;29;19926;-89
2022/10/14 14:05:35;;;;;;;;;;;;;;;;;;4920291;29;19926;-87
2022/10/14 14:08:00;;;;;;;;;;;;;;;;;;4917397;29;19919;-88
2022/10/14 14:10:26;;;;;;;;;;;;;;;;;;4900355;29;19990;-88
2022/10/14 14:12:51;;;;;;;;;;;;;;;;;;4917030;29;19915;-85
2022/10/14 14:15:25;;;;;;;;;;;;;;;;;;4899603;29;20368;-87
2022/10/14 14:17:50;;;;;;;;;;;;;;;;;;4918614;29;20395;-90
2022/10/14 14:20:20;;;;;;;;;;;;;;;;;;4918323;29;19919;-90
2022/10/14 14:22:45;;;;;;;;;;;;;;;;;;4917108;29;20014;-90
2022/10/14 14:25:14;;;;;;;;;;;;;;;;;;4917214;29;20018;-89
2022/10/14 14:27:42;;;;;;;;;;;;;;;;;;4916902;29;20010;-88
2022/10/14 14:30:18;;;;;;;;;;;;;;;;;;4901122;29;19919;-91
2022/10/14 14:32:43;;;;;;;;;;;;;;;;;;4899510;29;19919;-89
2022/10/14 14:35:11;;;;;;;;;;;;;;;;;;4917739;29;19929;-86
2022/10/14 14:37:40;;;;;;;;;;;;;;;;;;4922136;29;20415;-88
2022/10/14 14:40:13;;;;;;;;;;;;;;;;;;4919657;29;19925;-88
2022/10/14 14:42:39;;;;;;;;;;;;;;;;;;4936259;29;19969;-86
2022/10/14 14:45:11;;;;;;;;;;;;;;;;;;4935552;29;19922;-84
2022/10/14 14:47:37;;;;;;;;;;;;;;;;;;4935262;29;20027;-86
2022/10/14 14:50:04;;;;;;;;;;;;;;;;;;4935585;29;19992;-83
2022/10/14 14:52:30;;;;;;;;;;;;;;;;;;4935104;29;19922;-84
2022/10/14 14:54:55;;;;;;;;;;;;;;;;;;4935308;29;19923;-83
2022/10/14 14:57:21;;;;;;;;;;;;;;;;;;4918124;29;20514;-83
2022/10/14 14:59:54;;;;;;;;;;;;;;;;;;4934927;29;19927;-84
2022/10/14 15:02:21;;;;;;;;;;;;;;;;;;4935307;29;20453;-85
2022/10/14 15:04:57;;;;;;;;;;;;;;;;;;4935096;29;20370;-85
2022/10/14 15:07:24;;;;;;;;;;;;;;;;;;4935463;29;19929;-83
2022/10/14 15:09:51;;;;;;;;;;;;;;;;;;4935747;29;19923;-90
2022/10/14 15:12:22;;;;;;;;;;;;;;;;;;4919130;29;20326;-86
2022/10/14 15:14:48;;;;;;;;;;;;;;;;;;4936119;29;19925;-86
2022/10/14 15:17:26;;;;;;;;;;;;;;;;;;4932775;29;19924;-83
2022/10/14 15:19:51;;;;;;;;;;;;;;;;;;4949246;29;19950;-85
2022/10/14 15:22:17;;;;;;;;;;;;;;;;;;4952905;29;19954;-83
2022/10/14 15:24:59;;;;;;;;;;;;;;;;;;4939330;29;19926;-85
2022/10/14 15:27:30;;;;;;;;;;;;;;;;;;4921250;29;19987;-85
2022/10/14 15:30:15;;;;;;;;;;;;;;;;;;4939540;29;19930;-85
2022/10/14 15:32:40;;;;;;;;;;;;;;;;;;4938829;29;19960;-85
2022/10/14 15:35:06;;;;;;;;;;;;;;;;;;4939241;29;19950;-87
2022/10/14 15:37:32;;;;;;;;;;;;;;;;;;4939152;29;19918;-87
2022/10/14 15:40:09;;;;;;;;;;;;;;;;;;4940968;29;19923;-84
2022/10/14 15:42:34;;;;;;;;;;;;;;;;;;4939203;29;19919;-86
2022/10/14 15:44:59;;;;;;;;;;;;;;;;;;4939084;29;19919;-86
2022/10/14 15:47:27;;;;;;;;;;;;;;;;;;4921671;29;19954;-85
2022/10/14 15:49:53;;;;;;;;;;;;;;;;;;4939015;29;19927;-85
2022/10/14 15:52:18;;;;;;;;;;;;;;;;;;4938957;29;19922;-88
2022/10/14 15:54:44;;;;;;;;;;;;;;;;;;4938750;29;19919;-85
2022/10/14 15:57:11;;;;;;;;;;;;;;;;;;4938656;29;19923;-88
2022/10/14 15:59:36;;;;;;;;;;;;;;;;;;4921675;29;20286;-85
2022/10/14 16:02:03;;;;;;;;;;;;;;;;;;4941208;29;20013;-88
2022/10/14 16:04:28;;;;;;;;;;;;;;;;;;4939361;29;20010;-89
2022/10/14 16:06:54;;;;;;;;;;;;;;;;;;4921916;29;20009;-85
2022/10/14 16:09:25;;;;;;;;;;;;;;;;;;4922332;29;19941;-86
2022/10/14 16:11:56;;;;;;;;;;;;;;;;;;4940021;29;19922;-86
2022/10/14 16:14:27;;;;;;;;;;;;;;;;;;4922252;29;19931;-89
2022/10/14 16:16:53;;;;;;;;;;;;;;;;;;4938710;29;19931;-89
2022/10/14 16:19:18;;;;;;;;;;;;;;;;;;4938135;29;19923;-84
2022/10/14 16:21:44;;;;;;;;;;;;;;;;;;4938578;29;19929;-88
2022/10/14 16:24:19;;;;;;;;;;;;;;;;;;4938049;29;19922;-84
2022/10/14 16:26:44;;;;;;;;;;;;;;;;;;4921141;29;20373;-87
2022/10/14 16:29:10;;;;;;;;;;;;;;;;;;4937490;29;19958;-88
2022/10/14 16:31:35;;;;;;;;;;;;;;;;;;4920584;29;19990;-89
2022/10/14 16:34:01;;;;;;;;;;;;;;;;;;4920766;29;19930;-88
2022/10/14 16:36:27;;;;;;;;;;;;;;;;;;4937440;29;19919;-90
2022/10/14 16:38:52;;;;;;;;;;;;;;;;;;4936783;29;19938;-89
2022/10/14 16:41:18;;;;;;;;;;;;;;;;;;4937257;29;20014;-87
2022/10/14 16:43:43;;;;;;;;;;;;;;;;;;4937219;29;19925;-90
2022/10/14 16:46:09;;;;;;;;;;;;;;;;;;4937470;29;19944;-89
2022/10/14 16:48:35;;;;;;;;;;;;;;;;;;4938626;29;19919;-89
2022/10/14 16:51:01;;;;;;;;;;;;;;;;;;4937749;29;19929;-91
2022/10/14 16:53:47;;;;;;;;;;;;;;;;;;4937061;29;20010;-88
2022/10/14 16:58:58;;;;;;;;;;;;;;;;;;4940511;29;19996;-87
2022/10/14 17:01:24;;;;;;;;;;;;;;;;;;4925397;29;19929;-86
2022/10/14 17:03:49;;;;;;;;;;;;;;;;;;4938631;29;19922;-88
2022/10/14 17:06:15;;;;;;;;;;;;;;;;;;4939301;29;19919;-90